createdAt,value
2019-03-28T00:02:10.359Z,3.97
2019-03-28T00:04:38.870Z,3.96
2019-03-28T00:07:07.444Z,3.96
2019-03-28T00:09:36.407Z,3.95
2019-03-28T00:12:04.551Z,4.01
2019-03-28T00:14:33.255Z,3.98
2019-03-28T00:17:03.803Z,3.93
2019-03-28T00:19:31.805Z,3.87
2019-03-28T00:22:01.078Z,3.90
2019-03-28T00:24:34.181Z,3.93
2019-03-28T00:27:02.186Z,4.02
2019-03-28T00:29:30.793Z,4.05
2019-03-28T00:31:58.818Z,4.10
2019-03-28T00:34:27.434Z,4.10
2019-03-28T00:36:56.534Z,4.07
2019-03-28T00:39:24.513Z,4.04
2019-03-28T00:41:52.479Z,4.05
2019-03-28T00:44:20.273Z,4.03
2019-03-28T00:46:49.321Z,4.00
2019-03-28T00:49:18.265Z,3.93
2019-03-28T00:51:47.185Z,3.90
2019-03-28T00:54:15.288Z,3.89
2019-03-28T00:56:47.354Z,3.88
2019-03-28T00:59:13.384Z,3.86
2019-03-28T01:01:41.210Z,3.84
2019-03-28T01:04:09.683Z,3.81
2019-03-28T01:06:37.800Z,3.86
2019-03-28T01:09:08.649Z,3.84
2019-03-28T01:11:37.155Z,3.80
2019-03-28T01:14:06.364Z,3.84
2019-03-28T01:16:34.428Z,3.88
2019-03-28T01:19:02.978Z,3.90
2019-03-28T01:21:31.413Z,3.87
2019-03-28T01:24:00.320Z,3.86
2019-03-28T01:26:28.536Z,3.86
2019-03-28T01:28:56.295Z,3.84
2019-03-28T01:31:25.101Z,3.83
2019-03-28T01:33:53.754Z,3.85
2019-03-28T01:36:21.809Z,3.84
2019-03-28T01:38:50.507Z,3.88
2019-03-28T01:41:18.516Z,3.92
2019-03-28T01:43:47.045Z,3.96
2019-03-28T01:46:15.878Z,4.02
2019-03-28T01:48:44.257Z,3.97
2019-03-28T01:51:12.612Z,3.92
2019-03-28T01:53:40.954Z,3.87
2019-03-28T01:56:09.118Z,3.84
2019-03-28T01:58:37.247Z,3.80
2019-03-28T02:01:05.271Z,3.77
2019-03-28T02:03:33.074Z,3.80
2019-03-28T02:06:01.025Z,3.79
2019-03-28T02:08:29.887Z,3.80
2019-03-28T02:10:58.099Z,3.81
2019-03-28T02:13:27.134Z,3.81
2019-03-28T02:15:55.560Z,3.77
2019-03-28T02:18:24.372Z,3.75
2019-03-28T02:20:52.747Z,3.72
2019-03-28T02:23:21.108Z,3.71
2019-03-28T02:25:49.170Z,3.70
2019-03-28T02:28:17.926Z,3.64
2019-03-28T02:30:46.999Z,3.58
2019-03-28T02:33:14.890Z,3.59
2019-03-28T02:35:44.131Z,3.60
2019-03-28T02:38:12.685Z,3.60
2019-03-28T02:40:42.703Z,3.56
2019-03-28T02:43:11.092Z,3.56
2019-03-28T02:45:40.861Z,3.56
2019-03-28T02:48:08.838Z,3.54
2019-03-28T02:50:37.841Z,3.56
2019-03-28T02:53:07.077Z,3.56
2019-03-28T02:55:36.400Z,3.58
2019-03-28T02:58:05.743Z,3.62
2019-03-28T03:00:35.038Z,3.60
2019-03-28T03:03:03.858Z,3.64
2019-03-28T03:05:33.454Z,3.66
2019-03-28T03:08:02.356Z,3.55
2019-03-28T03:10:30.974Z,3.53
2019-03-28T03:13:00.869Z,3.49
2019-03-28T03:15:30.327Z,3.46
2019-03-28T03:17:58.528Z,3.39
2019-03-28T03:20:28.015Z,3.25
2019-03-28T03:22:56.063Z,3.25
2019-03-28T03:25:24.532Z,3.23
2019-03-28T03:27:58.593Z,3.26
2019-03-28T03:30:23.838Z,3.29
2019-03-28T03:32:51.972Z,3.33
2019-03-28T03:35:19.814Z,3.47
2019-03-28T03:37:48.109Z,3.51
2019-03-28T03:40:17.306Z,3.57
2019-03-28T03:42:47.539Z,3.57
2019-03-28T03:45:15.784Z,3.57
2019-03-28T03:47:45.784Z,3.55
2019-03-28T03:50:35.761Z,3.51
2019-03-28T03:53:04.034Z,3.51
2019-03-28T03:55:32.745Z,3.53
2019-03-28T03:58:14.331Z,3.56
2019-03-28T04:00:32.359Z,3.51
2019-03-28T04:03:00.954Z,3.51
2019-03-28T04:05:30.082Z,3.50
2019-03-28T04:08:00.285Z,3.45
2019-03-28T04:10:28.757Z,3.44
2019-03-28T04:12:57.551Z,3.45
2019-03-28T04:15:25.377Z,3.48
2019-03-28T04:17:53.635Z,3.45
2019-03-28T04:20:21.621Z,3.40
2019-03-28T04:22:57.153Z,3.38
2019-03-28T04:25:25.275Z,3.48
2019-03-28T04:27:53.676Z,3.50
2019-03-28T04:30:23.269Z,3.44
2019-03-28T04:32:51.148Z,3.47
2019-03-28T04:35:19.849Z,3.45
2019-03-28T04:37:48.088Z,3.52
2019-03-28T04:40:16.596Z,3.44
2019-03-28T04:42:46.016Z,3.42
2019-03-28T04:45:14.634Z,3.47
2019-03-28T04:47:43.383Z,3.45
2019-03-28T04:50:11.593Z,3.39
2019-03-28T04:52:39.702Z,3.47
2019-03-28T04:55:08.896Z,3.48
2019-03-28T04:57:37.003Z,3.45
2019-03-28T05:00:07.348Z,3.33
2019-03-28T05:02:36.777Z,3.39
2019-03-28T05:05:04.819Z,3.45
2019-03-28T05:07:33.854Z,3.46
2019-03-28T05:10:01.603Z,3.45
2019-03-28T05:12:29.964Z,3.48
2019-03-28T05:14:57.852Z,3.55
2019-03-28T05:17:26.199Z,3.54
2019-03-28T05:19:54.957Z,3.53
2019-03-28T05:22:23.057Z,3.67
2019-03-28T05:24:50.828Z,3.73
2019-03-28T05:27:18.773Z,3.78
2019-03-28T05:29:48.116Z,3.80
2019-03-28T05:32:18.781Z,3.89
2019-03-28T05:34:47.192Z,3.93
2019-03-28T05:37:15.179Z,3.94
2019-03-28T05:39:43.075Z,4.00
2019-03-28T05:42:11.230Z,4.04
2019-03-28T05:44:39.760Z,4.10
2019-03-28T05:47:08.208Z,4.20
2019-03-28T05:49:36.736Z,4.31
2019-03-28T05:52:04.871Z,4.28
2019-03-28T05:54:33.012Z,4.40
2019-03-28T05:57:01.253Z,4.50
2019-03-28T05:59:30.373Z,4.53
2019-03-28T06:01:58.508Z,4.65
2019-03-28T06:04:26.588Z,4.73
2019-03-28T06:06:55.515Z,4.76
2019-03-28T06:09:23.840Z,4.83
2019-03-28T06:11:53.044Z,5.01
2019-03-28T06:14:21.346Z,5.14
2019-03-28T06:16:50.014Z,5.22
2019-03-28T06:19:18.128Z,5.42
2019-03-28T06:21:46.229Z,5.50
2019-03-28T06:24:14.486Z,5.64
2019-03-28T06:26:43.359Z,5.65
2019-03-28T06:29:23.137Z,5.78
2019-03-28T06:31:54.311Z,5.97
2019-03-28T06:34:11.851Z,6.18
2019-03-28T06:36:40.625Z,6.25
2019-03-28T06:39:10.864Z,6.40
2019-03-28T06:41:39.702Z,6.50
2019-03-28T06:44:07.940Z,6.77
2019-03-28T06:46:36.452Z,7.12
2019-03-28T06:49:04.566Z,7.12
2019-03-28T06:51:32.798Z,7.14
2019-03-28T06:54:01.003Z,7.28
2019-03-28T06:56:29.635Z,7.26
2019-03-28T06:58:58.016Z,7.32
2019-03-28T07:01:26.169Z,7.35
2019-03-28T07:03:53.954Z,7.67
2019-03-28T07:06:23.035Z,7.74
2019-03-28T07:08:51.660Z,7.66
2019-03-28T07:11:19.624Z,7.80
2019-03-28T07:13:47.688Z,7.82
2019-03-28T07:16:16.840Z,8.00
2019-03-28T07:18:44.789Z,8.40
2019-03-28T07:21:14.270Z,8.53
2019-03-28T07:23:42.351Z,8.46
2019-03-28T07:26:10.479Z,8.60
2019-03-28T07:28:39.390Z,8.35
2019-03-28T07:31:08.256Z,8.16
2019-03-28T07:33:36.882Z,8.21
2019-03-28T07:36:05.084Z,8.29
2019-03-28T07:38:33.351Z,8.69
2019-03-28T07:41:01.451Z,8.92
2019-03-28T07:43:29.528Z,8.91
2019-03-28T07:45:57.793Z,9.21
2019-03-28T07:48:25.776Z,9.50
2019-03-28T07:50:53.997Z,9.66
2019-03-28T07:53:22.307Z,9.46
2019-03-28T07:55:50.339Z,9.02
2019-03-28T07:58:18.423Z,9.75
2019-03-28T08:00:46.794Z,9.92
2019-03-28T08:03:14.801Z,9.89
2019-03-28T08:05:43.016Z,9.90
2019-03-28T08:08:11.234Z,9.81
2019-03-28T08:10:39.192Z,10.08
2019-03-28T08:13:09.557Z,10.08
2019-03-28T08:15:37.873Z,11.00
2019-03-28T08:18:05.975Z,10.47
2019-03-28T08:20:34.134Z,10.50
2019-03-28T08:23:01.965Z,10.82
2019-03-28T08:25:31.505Z,10.45
2019-03-28T08:27:59.852Z,10.16
2019-03-28T08:30:34.568Z,10.43
2019-03-28T08:33:04.908Z,10.37
2019-03-28T08:35:36.327Z,10.63
2019-03-28T08:38:04.692Z,10.71
2019-03-28T08:40:34.682Z,10.42
2019-03-28T08:43:03.314Z,10.04
2019-03-28T08:45:31.495Z,9.88
2019-03-28T08:47:59.624Z,9.81
2019-03-28T08:50:27.781Z,9.86
2019-03-28T08:52:56.899Z,10.35
2019-03-28T08:55:25.692Z,9.90
2019-03-28T08:57:54.273Z,9.94
2019-03-28T09:00:32.887Z,10.29
2019-03-28T09:02:54.917Z,10.71
2019-03-28T09:05:23.393Z,10.78
2019-03-28T09:07:53.242Z,10.45
2019-03-28T09:10:21.453Z,10.25
2019-03-28T09:12:49.560Z,10.71
2019-03-28T09:15:18.129Z,11.36
2019-03-28T09:17:46.459Z,10.71
2019-03-28T09:20:14.470Z,10.62
2019-03-28T09:22:42.354Z,11.29
2019-03-28T09:25:12.502Z,11.12
2019-03-28T09:27:40.748Z,11.57
2019-03-28T09:30:09.639Z,11.41
2019-03-28T09:32:38.080Z,11.08
2019-03-28T09:35:09.378Z,11.16
2019-03-28T09:37:37.296Z,11.00
2019-03-28T09:40:06.195Z,10.69
2019-03-28T09:42:34.181Z,11.12
2019-03-28T09:45:03.112Z,11.36
2019-03-28T09:47:31.682Z,12.02
2019-03-28T09:50:00.421Z,12.46
2019-03-28T09:52:28.683Z,12.83
2019-03-28T09:54:58.942Z,13.43
2019-03-28T09:57:27.453Z,12.92
2019-03-28T09:59:55.550Z,12.91
2019-03-28T10:02:24.112Z,12.96
2019-03-28T10:04:52.265Z,13.29
2019-03-28T10:07:20.554Z,12.46
2019-03-28T10:09:50.285Z,12.62
2019-03-28T10:12:19.600Z,13.15
2019-03-28T10:14:47.835Z,12.35
2019-03-28T10:17:15.884Z,12.43
2019-03-28T10:19:44.292Z,12.85
2019-03-28T10:22:12.508Z,12.52
2019-03-28T10:24:41.017Z,12.61
2019-03-28T10:27:09.168Z,12.41
2019-03-28T10:29:37.296Z,12.14
2019-03-28T10:32:06.469Z,12.59
2019-03-28T10:34:35.509Z,13.41
2019-03-28T10:37:04.108Z,13.11
2019-03-28T10:39:34.342Z,12.55
2019-03-28T10:42:02.104Z,12.52
2019-03-28T10:44:30.941Z,12.42
2019-03-28T10:46:59.666Z,12.47
2019-03-28T10:49:27.778Z,12.54
2019-03-28T10:51:56.588Z,12.66
2019-03-28T10:54:25.898Z,12.46
2019-03-28T10:56:57.517Z,12.84
2019-03-28T10:59:27.520Z,12.25
2019-03-28T11:01:55.852Z,12.58
2019-03-28T11:04:24.374Z,13.24
2019-03-28T11:06:53.039Z,13.28
2019-03-28T11:09:21.441Z,12.68
2019-03-28T11:11:49.283Z,12.90
2019-03-28T11:14:17.756Z,12.78
2019-03-28T11:16:48.211Z,13.16
2019-03-28T11:19:16.871Z,12.77
2019-03-28T11:21:46.765Z,12.74
2019-03-28T11:24:14.879Z,12.67
2019-03-28T11:26:42.970Z,13.03
2019-03-28T11:29:11.575Z,12.83
2019-03-28T11:31:46.875Z,12.74
2019-03-28T11:34:12.797Z,12.46
2019-03-28T11:36:41.445Z,13.10
2019-03-28T11:39:10.056Z,13.65
2019-03-28T11:41:38.349Z,13.38
2019-03-28T11:44:06.127Z,14.05
2019-03-28T11:46:34.488Z,14.12
2019-03-28T11:49:02.531Z,14.06
2019-03-28T11:51:31.255Z,14.14
2019-03-28T11:53:59.715Z,14.33
2019-03-28T11:56:27.921Z,13.88
2019-03-28T11:58:56.284Z,14.23
2019-03-28T12:01:24.350Z,14.11
2019-03-28T12:03:52.940Z,14.24
2019-03-28T12:06:21.124Z,14.19
2019-03-28T12:08:49.153Z,14.77
2019-03-28T12:11:18.231Z,15.24
2019-03-28T12:13:46.312Z,14.99
2019-03-28T12:16:14.841Z,14.71
2019-03-28T12:18:43.511Z,14.71
2019-03-28T12:21:11.796Z,13.86
2019-03-28T12:23:40.252Z,13.96
2019-03-28T12:26:08.232Z,13.67
2019-03-28T12:28:37.367Z,13.51
2019-03-28T12:31:06.465Z,13.48
2019-03-28T12:33:34.787Z,13.66
2019-03-28T12:36:03.902Z,13.60
2019-03-28T12:38:31.671Z,13.28
2019-03-28T12:41:00.602Z,13.20
2019-03-28T12:43:29.215Z,13.29
2019-03-28T12:46:00.993Z,13.13
2019-03-28T12:48:29.160Z,13.01
2019-03-28T12:50:59.019Z,13.32
2019-03-28T12:53:28.401Z,13.24
2019-03-28T12:55:57.223Z,13.63
2019-03-28T12:58:25.018Z,13.81
2019-03-28T13:00:53.035Z,13.18
2019-03-28T13:03:21.557Z,13.32
2019-03-28T13:05:51.343Z,14.39
2019-03-28T13:08:19.772Z,13.83
2019-03-28T13:10:48.263Z,13.85
2019-03-28T13:13:17.584Z,13.29
2019-03-28T13:15:45.719Z,13.42
2019-03-28T13:18:14.391Z,13.80
2019-03-28T13:20:42.999Z,13.74
2019-03-28T13:23:11.049Z,14.24
2019-03-28T13:25:39.471Z,14.17
2019-03-28T13:28:07.575Z,14.73
2019-03-28T13:30:36.282Z,13.95
2019-03-28T13:33:04.187Z,13.80
2019-03-28T13:35:35.138Z,14.10
2019-03-28T13:38:04.462Z,15.01
2019-03-28T13:40:32.212Z,14.25
2019-03-28T13:43:01.195Z,14.63
2019-03-28T13:45:29.442Z,14.81
2019-03-28T13:47:57.248Z,14.57
2019-03-28T13:50:25.267Z,14.79
2019-03-28T13:52:54.271Z,14.47
2019-03-28T13:55:22.846Z,14.13
2019-03-28T13:57:52.347Z,14.10
2019-03-28T14:00:31.893Z,13.76
2019-03-28T14:03:01.654Z,13.69
2019-03-28T14:05:29.880Z,13.77
2019-03-28T14:07:58.266Z,13.44
2019-03-28T14:10:26.312Z,13.30
2019-03-28T14:12:54.745Z,13.51
2019-03-28T14:15:22.789Z,12.91
2019-03-28T14:17:50.970Z,13.42
2019-03-28T14:20:22.198Z,13.51
2019-03-28T14:22:49.253Z,13.21
2019-03-28T14:25:17.823Z,13.56
2019-03-28T14:27:45.834Z,13.45
2019-03-28T14:30:14.420Z,13.48
2019-03-28T14:32:53.283Z,13.83
2019-03-28T14:35:13.083Z,13.64
2019-03-28T14:37:41.304Z,13.33
2019-03-28T14:40:10.026Z,13.61
2019-03-28T14:42:38.119Z,13.94
2019-03-28T14:45:08.381Z,13.59
2019-03-28T14:47:37.792Z,13.07
2019-03-28T14:50:07.243Z,13.09
2019-03-28T14:52:35.295Z,13.07
2019-03-28T14:55:04.419Z,13.17
2019-03-28T14:57:32.558Z,13.24
2019-03-28T15:00:02.898Z,13.21
2019-03-28T15:02:31.269Z,13.44
2019-03-28T15:05:00.042Z,13.27
2019-03-28T15:07:28.252Z,13.31
2019-03-28T15:09:56.021Z,13.30
2019-03-28T15:12:25.125Z,13.28
2019-03-28T15:14:54.203Z,13.24
2019-03-28T15:17:22.679Z,13.31
2019-03-28T15:19:53.572Z,13.41
2019-03-28T15:22:25.085Z,13.17
2019-03-28T15:24:53.972Z,12.89
2019-03-28T15:27:23.203Z,13.04
2019-03-28T15:29:50.998Z,12.99
2019-03-28T15:32:19.723Z,12.81
2019-03-28T15:34:48.289Z,12.73
2019-03-28T15:37:17.010Z,12.73
2019-03-28T15:39:45.950Z,12.73
2019-03-28T15:42:14.277Z,12.69
2019-03-28T15:44:42.295Z,12.61
2019-03-28T15:47:10.646Z,12.53
2019-03-28T15:49:38.329Z,12.47
2019-03-28T15:52:06.843Z,12.26
2019-03-28T15:54:35.995Z,12.34
2019-03-28T15:57:04.619Z,12.34
2019-03-28T15:59:34.691Z,12.20
2019-03-28T16:02:03.585Z,12.05
2019-03-28T16:04:32.325Z,11.95
2019-03-28T16:07:02.020Z,12.09
2019-03-28T16:09:30.582Z,11.94
2019-03-28T16:12:02.731Z,11.86
2019-03-28T16:14:29.080Z,11.83
2019-03-28T16:16:57.179Z,11.68
2019-03-28T16:19:25.304Z,11.73
2019-03-28T16:21:54.247Z,11.73
2019-03-28T16:24:24.693Z,11.66
2019-03-28T16:26:55.142Z,11.57
2019-03-28T16:29:24.846Z,11.29
2019-03-28T16:31:53.236Z,11.20
2019-03-28T16:34:21.428Z,11.16
2019-03-28T16:36:50.739Z,11.05
2019-03-28T16:39:19.066Z,11.01
2019-03-28T16:41:49.109Z,11.01
2019-03-28T16:44:18.375Z,10.98
2019-03-28T16:46:46.387Z,10.98
2019-03-28T16:49:14.487Z,10.88
2019-03-28T16:51:43.643Z,10.89
2019-03-28T16:54:12.215Z,10.79
2019-03-28T16:56:40.541Z,10.70
2019-03-28T16:59:09.215Z,10.63
2019-03-28T17:01:37.448Z,10.54
2019-03-28T17:04:20.088Z,10.47
2019-03-28T17:06:38.039Z,10.39
2019-03-28T17:09:07.186Z,10.34
2019-03-28T17:11:35.694Z,10.27
2019-03-28T17:14:03.750Z,10.19
2019-03-28T17:16:31.764Z,10.15
2019-03-28T17:19:00.196Z,10.07
2019-03-28T17:21:28.801Z,10.01
2019-03-28T17:23:56.923Z,9.96
2019-03-28T17:26:25.091Z,9.93
2019-03-28T17:28:53.317Z,9.89
2019-03-28T17:31:22.273Z,9.83
2019-03-28T17:33:50.608Z,9.78
2019-03-28T17:36:19.107Z,9.73
2019-03-28T17:38:48.487Z,9.70
2019-03-28T17:41:17.693Z,9.69
2019-03-28T17:43:46.325Z,9.63
2019-03-28T17:46:16.006Z,9.63
2019-03-28T17:48:44.357Z,9.59
2019-03-28T17:51:13.052Z,9.60
2019-03-28T17:53:41.587Z,9.58
2019-03-28T17:56:12.873Z,9.53
2019-03-28T17:58:45.355Z,9.52
2019-03-28T18:01:16.540Z,9.51
2019-03-28T18:03:46.988Z,9.45
2019-03-28T18:06:17.357Z,9.44
2019-03-28T18:08:47.938Z,9.43
2019-03-28T18:11:17.723Z,9.42
2019-03-28T18:13:46.375Z,9.37
2019-03-28T18:16:15.208Z,9.37
2019-03-28T18:18:47.545Z,9.38
2019-03-28T18:21:15.587Z,9.38
2019-03-28T18:23:43.535Z,9.35
2019-03-28T18:26:12.364Z,9.34
2019-03-28T18:28:40.583Z,9.28
2019-03-28T18:31:09.337Z,9.26
2019-03-28T18:33:37.407Z,9.24
2019-03-28T18:36:05.956Z,9.23
2019-03-28T18:38:34.464Z,9.24
2019-03-28T18:41:03.125Z,9.19
2019-03-28T18:43:31.654Z,9.14
2019-03-28T18:46:01.113Z,9.13
2019-03-28T18:48:35.901Z,9.13
2019-03-28T18:51:01.002Z,9.09
2019-03-28T18:53:29.262Z,9.09
2019-03-28T18:55:57.795Z,9.08
2019-03-28T18:58:25.907Z,9.07
2019-03-28T19:00:54.386Z,9.03
2019-03-28T19:03:23.130Z,9.08
2019-03-28T19:05:52.170Z,9.10
2019-03-28T19:08:20.420Z,9.10
2019-03-28T19:10:51.050Z,9.11
2019-03-28T19:13:18.457Z,9.07
2019-03-28T19:15:46.613Z,9.03
2019-03-28T19:18:15.270Z,9.01
2019-03-28T19:20:44.891Z,9.00
2019-03-28T19:23:13.906Z,9.00
2019-03-28T19:25:59.252Z,9.00
2019-03-28T19:28:29.611Z,9.00
2019-03-28T19:30:58.982Z,8.98
2019-03-28T19:33:26.942Z,8.97
2019-03-28T19:35:54.950Z,8.94
2019-03-28T19:38:23.400Z,8.94
2019-03-28T19:40:52.876Z,8.93
2019-03-28T19:43:22.949Z,8.92
2019-03-28T19:45:52.508Z,8.91
2019-03-28T19:48:20.993Z,8.80
2019-03-28T19:50:58.481Z,8.80
2019-03-28T19:53:26.544Z,8.81
2019-03-28T19:55:55.580Z,8.78
2019-03-28T19:58:23.904Z,8.73
2019-03-28T20:00:52.419Z,8.72
2019-03-28T20:03:23.261Z,8.68
2019-03-28T20:05:50.823Z,8.66
2019-03-28T20:08:18.873Z,8.63
2019-03-28T20:10:47.466Z,8.59
2019-03-28T20:13:17.828Z,8.59
2019-03-28T20:15:45.588Z,8.54
2019-03-28T20:18:13.494Z,8.58
2019-03-28T20:20:43.467Z,8.56
2019-03-28T20:23:12.635Z,8.50
2019-03-28T20:25:43.272Z,8.50
2019-03-28T20:28:14.265Z,8.45
2019-03-28T20:30:45.129Z,8.45
2019-03-28T20:33:14.210Z,8.46
2019-03-28T20:35:42.607Z,8.41
2019-03-28T20:38:10.650Z,8.41
2019-03-28T20:40:38.742Z,8.46
2019-03-28T20:43:08.052Z,8.49
2019-03-28T20:45:36.950Z,8.50
2019-03-28T20:48:06.695Z,8.49
2019-03-28T20:50:34.803Z,8.51
2019-03-28T20:53:03.324Z,8.53
2019-03-28T20:55:31.575Z,8.50
2019-03-28T20:58:00.316Z,8.45
2019-03-28T21:00:40.777Z,8.38
2019-03-28T21:03:09.514Z,8.36
2019-03-28T21:05:37.948Z,8.35
2019-03-28T21:08:07.492Z,8.31
2019-03-28T21:10:36.369Z,8.35
2019-03-28T21:13:04.667Z,8.37
2019-03-28T21:15:32.840Z,8.36
2019-03-28T21:18:01.085Z,8.35
2019-03-28T21:20:29.282Z,8.33
2019-03-28T21:22:57.781Z,8.30
2019-03-28T21:25:25.508Z,8.24
2019-03-28T21:27:55.167Z,8.24
2019-03-28T21:30:22.921Z,8.22
2019-03-28T21:32:55.629Z,8.17
2019-03-28T21:35:22.649Z,8.14
2019-03-28T21:37:51.581Z,8.10
2019-03-28T21:40:19.667Z,8.08
2019-03-28T21:42:48.086Z,8.07
2019-03-28T21:45:16.026Z,8.07
2019-03-28T21:47:43.787Z,8.05
2019-03-28T21:50:12.071Z,8.00
2019-03-28T21:52:40.302Z,7.99
2019-03-28T21:55:11.640Z,7.93
2019-03-28T21:57:38.804Z,7.92
2019-03-28T22:00:07.256Z,7.94
2019-03-28T22:02:35.995Z,7.91
2019-03-28T22:05:04.315Z,7.87
2019-03-28T22:07:32.343Z,7.84
2019-03-28T22:10:00.645Z,7.83
2019-03-28T22:12:29.980Z,7.82
2019-03-28T22:14:58.746Z,7.81
2019-03-28T22:17:28.185Z,7.77
2019-03-28T22:19:56.458Z,7.76
2019-03-28T22:22:26.444Z,7.70
2019-03-28T22:24:54.228Z,7.69
2019-03-28T22:27:22.798Z,7.71
2019-03-28T22:29:50.916Z,7.67
2019-03-28T22:32:19.092Z,7.65
2019-03-28T22:34:47.464Z,7.67
2019-03-28T22:37:16.900Z,7.64
2019-03-28T22:39:46.311Z,7.61
2019-03-28T22:42:15.104Z,7.59
2019-03-28T22:44:43.099Z,7.57
2019-03-28T22:47:11.464Z,7.58
2019-03-28T22:49:40.461Z,7.54
2019-03-28T22:52:09.340Z,7.51
2019-03-28T22:54:38.332Z,7.50
2019-03-28T22:57:08.779Z,7.50
2019-03-28T22:59:37.091Z,7.48
2019-03-28T23:02:06.447Z,7.51
2019-03-28T23:04:36.295Z,7.45
2019-03-28T23:07:10.734Z,7.45
2019-03-28T23:09:34.598Z,7.42
2019-03-28T23:12:03.642Z,7.35
2019-03-28T23:14:31.671Z,7.28
2019-03-28T23:17:00.667Z,7.25
2019-03-28T23:19:32.277Z,7.20
2019-03-28T23:22:00.171Z,7.18
2019-03-28T23:24:27.919Z,7.15
2019-03-28T23:26:56.061Z,7.06
2019-03-28T23:29:24.617Z,6.95
2019-03-28T23:31:52.494Z,6.75
2019-03-28T23:34:20.732Z,6.62
2019-03-28T23:36:48.823Z,6.45
2019-03-28T23:39:19.234Z,6.38
2019-03-28T23:41:47.927Z,6.21
2019-03-28T23:44:16.366Z,6.12
2019-03-28T23:46:44.239Z,6.11
2019-03-28T23:49:12.339Z,6.05
2019-03-28T23:51:40.542Z,5.94
2019-03-28T23:54:08.311Z,5.93
2019-03-28T23:56:36.985Z,5.80
2019-03-28T23:59:06.502Z,5.78
